<?xml version="1.0" encoding="UTF-8" standalone="no" ?>
<gpx xmlns="http://www.topografix.com/GPX/1/1" xmlns:xsi="http://www.w3.org/2001/XMLSchema-instance" xsi:schemaLocation="http://www.topografix.com/GPX/1/1 http://www.topografix.com/GPX/1/1/gpx.xsd" version="1.1" creator="VisuGPX - https://www.visugpx.com">
  <metadata>
    <name>Sentier de Mela</name>
    <desc><![CDATA[Traces du 23/02/2025 en descente et montée]]></desc>
  </metadata>
  <trk>
    <name><![CDATA[Operata du 26/01/2025 - Trace sentier aval restauré]]></name>
    <extensions>
      <line xmlns="http://www.topografix.com/GPX/gpx_style/0/2">
        <color>00ff00</color>
        <opacity>1</opacity>
        <width>5</width>
          <extensions>
            <sens>1</sens>
          </extensions>
      </line>
    </extensions>
    <trkseg>
      <trkpt lat="41.75332" lon="9.27797">
        <ele>287.5</ele>
      </trkpt>
      <trkpt lat="41.75344" lon="9.27776">
        <ele>292.1</ele>
      </trkpt>
      <trkpt lat="41.75355" lon="9.2776">
        <ele>292.3</ele>
      </trkpt>
      <trkpt lat="41.7537" lon="9.27738">
        <ele>292.4</ele>
      </trkpt>
      <trkpt lat="41.75378" lon="9.27731">
        <ele>292.9</ele>
      </trkpt>
      <trkpt lat="41.75387" lon="9.2773">
        <ele>295.1</ele>
      </trkpt>
      <trkpt lat="41.7539" lon="9.2773">
        <ele>295.8</ele>
      </trkpt>
      <trkpt lat="41.75396" lon="9.27731">
        <ele>295</ele>
        <time>2025-01-26T10:17:58Z</time>
      </trkpt>
      <trkpt lat="41.75399" lon="9.27733">
        <ele>294</ele>
        <time>2025-01-26T10:18:09Z</time>
      </trkpt>
      <trkpt lat="41.75405" lon="9.27734">
        <ele>296</ele>
        <time>2025-01-26T10:18:20Z</time>
      </trkpt>
      <trkpt lat="41.7541" lon="9.2773">
        <ele>297</ele>
        <time>2025-01-26T10:18:32Z</time>
      </trkpt>
      <trkpt lat="41.75415" lon="9.27734">
        <ele>297</ele>
        <time>2025-01-26T10:18:35Z</time>
      </trkpt>
      <trkpt lat="41.75422" lon="9.2774">
        <ele>298</ele>
        <time>2025-01-26T10:18:52Z</time>
      </trkpt>
      <trkpt lat="41.75427" lon="9.2774">
        <ele>298</ele>
        <time>2025-01-26T10:18:59Z</time>
      </trkpt>
      <trkpt lat="41.75431" lon="9.27739">
        <ele>295</ele>
        <time>2025-01-26T10:19:11Z</time>
      </trkpt>
      <trkpt lat="41.75436" lon="9.27736">
        <ele>299</ele>
        <time>2025-01-26T10:19:41Z</time>
      </trkpt>
      <trkpt lat="41.75441" lon="9.27736">
        <ele>300</ele>
        <time>2025-01-26T10:19:53Z</time>
      </trkpt>
      <trkpt lat="41.75445" lon="9.27734">
        <ele>302</ele>
        <time>2025-01-26T10:20:18Z</time>
      </trkpt>
      <trkpt lat="41.75443" lon="9.27727">
        <ele>302</ele>
        <time>2025-01-26T10:20:21Z</time>
      </trkpt>
      <trkpt lat="41.75441" lon="9.27721">
        <ele>303</ele>
        <time>2025-01-26T10:20:33Z</time>
      </trkpt>
      <trkpt lat="41.75438" lon="9.27717">
        <ele>303</ele>
        <time>2025-01-26T10:20:37Z</time>
      </trkpt>
      <trkpt lat="41.75436" lon="9.27709">
        <ele>302</ele>
        <time>2025-01-26T10:20:44Z</time>
      </trkpt>
      <trkpt lat="41.75433" lon="9.27699">
        <ele>302</ele>
        <time>2025-01-26T10:20:54Z</time>
      </trkpt>
      <trkpt lat="41.75432" lon="9.27692">
        <ele>305</ele>
        <time>2025-01-26T10:21:06Z</time>
      </trkpt>
      <trkpt lat="41.75434" lon="9.27693">
        <ele>306.5</ele>
      </trkpt>
      <trkpt lat="41.75436" lon="9.27693">
        <ele>307.2</ele>
        <time>2025-01-26T10:21:18Z</time>
      </trkpt>
      <trkpt lat="41.75438" lon="9.27693">
        <ele>307.6</ele>
      </trkpt>
      <trkpt lat="41.75439" lon="9.27694">
        <ele>308.1</ele>
      </trkpt>
      <trkpt lat="41.75442" lon="9.27694">
        <ele>309</ele>
      </trkpt>
      <trkpt lat="41.75443" lon="9.27696">
        <ele>309.3</ele>
        <time>2025-01-26T10:21:23Z</time>
      </trkpt>
      <trkpt lat="41.75445" lon="9.27696">
        <ele>309.8</ele>
      </trkpt>
      <trkpt lat="41.75446" lon="9.27696">
        <ele>310.5</ele>
        <time>2025-01-26T10:21:27Z</time>
      </trkpt>
      <trkpt lat="41.75448" lon="9.27694">
        <ele>311.1</ele>
      </trkpt>
      <trkpt lat="41.75449" lon="9.27692">
        <ele>311.7</ele>
      </trkpt>
      <trkpt lat="41.75451" lon="9.27692">
        <ele>312.4</ele>
      </trkpt>
      <trkpt lat="41.75453" lon="9.27692">
        <ele>313.1</ele>
        <time>2025-01-26T10:21:34Z</time>
      </trkpt>
      <trkpt lat="41.75455" lon="9.27693">
        <ele>313.8</ele>
      </trkpt>
      <trkpt lat="41.75457" lon="9.27693">
        <ele>314.5</ele>
        <time>2025-01-26T10:21:39Z</time>
      </trkpt>
      <trkpt lat="41.75459" lon="9.27694">
        <ele>315.1</ele>
      </trkpt>
      <trkpt lat="41.7546" lon="9.27695">
        <ele>316</ele>
        <time>2025-01-26T10:21:47Z</time>
      </trkpt>
      <trkpt lat="41.7546" lon="9.27699">
        <ele>315.2</ele>
      </trkpt>
      <trkpt lat="41.75461" lon="9.27702">
        <ele>315.3</ele>
      </trkpt>
      <trkpt lat="41.75461" lon="9.27704">
        <ele>315.4</ele>
        <time>2025-01-26T10:21:52Z</time>
      </trkpt>
      <trkpt lat="41.75463" lon="9.27706">
        <ele>316.2</ele>
        <time>2025-01-26T10:21:58Z</time>
      </trkpt>
      <trkpt lat="41.75465" lon="9.27709">
        <ele>316.7</ele>
      </trkpt>
      <trkpt lat="41.75467" lon="9.27711">
        <ele>317.8</ele>
      </trkpt>
      <trkpt lat="41.75469" lon="9.27714">
        <ele>318.7</ele>
        <time>2025-01-26T10:22:17Z</time>
      </trkpt>
      <trkpt lat="41.75473" lon="9.2771">
        <ele>320.1</ele>
        <time>2025-01-26T10:22:30Z</time>
      </trkpt>
      <trkpt lat="41.75473" lon="9.27708">
        <ele>321</ele>
        <time>2025-01-26T10:28:19Z</time>
      </trkpt>
    </trkseg>
  </trk>
</gpx>